sensor_id;sensor_type;location;lat;lon;timestamp;P1;durP1;ratioP1;P2;durP2;ratioP2
50393;SDS011;36308;46.312;25.288;2023-04-08T00:01:57;30.50;;;18.95;;
50393;SDS011;36308;46.312;25.288;2023-04-08T00:04:23;30.58;;;18.38;;
50393;SDS011;36308;46.312;25.288;2023-04-08T00:06:48;33.42;;;20.05;;
50393;SDS011;36308;46.312;25.288;2023-04-08T00:09:14;27.63;;;18.27;;
50393;SDS011;36308;46.312;25.288;2023-04-08T00:11:39;31.80;;;19.92;;
50393;SDS011;36308;46.312;25.288;2023-04-08T00:14:05;30.08;;;19.25;;
50393;SDS011;36308;46.312;25.288;2023-04-08T00:16:31;30.90;;;19.50;;
50393;SDS011;36308;46.312;25.288;2023-04-08T00:18:57;31.17;;;19.38;;
50393;SDS011;36308;46.312;25.288;2023-04-08T00:21:22;31.30;;;19.50;;
50393;SDS011;36308;46.312;25.288;2023-04-08T00:23:48;32.25;;;18.48;;
50393;SDS011;36308;46.312;25.288;2023-04-08T00:26:14;29.10;;;18.50;;
50393;SDS011;36308;46.312;25.288;2023-04-08T00:28:40;27.98;;;17.33;;
50393;SDS011;36308;46.312;25.288;2023-04-08T00:31:06;27.52;;;17.65;;
50393;SDS011;36308;46.312;25.288;2023-04-08T00:33:32;25.33;;;16.75;;
50393;SDS011;36308;46.312;25.288;2023-04-08T00:35:57;26.13;;;17.70;;
50393;SDS011;36308;46.312;25.288;2023-04-08T00:38:23;27.75;;;17.88;;
50393;SDS011;36308;46.312;25.288;2023-04-08T00:40:48;27.17;;;17.35;;
50393;SDS011;36308;46.312;25.288;2023-04-08T00:43:14;28.92;;;18.33;;
50393;SDS011;36308;46.312;25.288;2023-04-08T00:45:40;30.05;;;18.27;;
50393;SDS011;36308;46.312;25.288;2023-04-08T00:48:06;26.17;;;18.33;;
50393;SDS011;36308;46.312;25.288;2023-04-08T00:50:32;27.48;;;18.38;;
50393;SDS011;36308;46.312;25.288;2023-04-08T00:52:57;28.02;;;17.92;;
50393;SDS011;36308;46.312;25.288;2023-04-08T00:55:23;29.42;;;20.27;;
50393;SDS011;36308;46.312;25.288;2023-04-08T00:57:48;23.50;;;16.35;;
50393;SDS011;36308;46.312;25.288;2023-04-08T01:00:14;27.58;;;17.48;;
50393;SDS011;36308;46.312;25.288;2023-04-08T01:05:19;27.08;;;17.75;;
50393;SDS011;36308;46.312;25.288;2023-04-08T01:08:04;25.92;;;17.33;;
50393;SDS011;36308;46.312;25.288;2023-04-08T01:10:33;26.13;;;16.90;;
50393;SDS011;36308;46.312;25.288;2023-04-08T01:13:04;23.70;;;15.95;;
50393;SDS011;36308;46.312;25.288;2023-04-08T01:15:34;25.15;;;16.98;;
50393;SDS011;36308;46.312;25.288;2023-04-08T01:18:05;27.30;;;17.23;;
50393;SDS011;36308;46.312;25.288;2023-04-08T01:20:32;26.45;;;17.33;;
50393;SDS011;36308;46.312;25.288;2023-04-08T01:25:52;25.58;;;16.50;;
50393;SDS011;36308;46.312;25.288;2023-04-08T01:28:18;25.52;;;16.95;;
50393;SDS011;36308;46.312;25.288;2023-04-08T01:30:46;26.10;;;16.63;;
50393;SDS011;36308;46.312;25.288;2023-04-08T01:33:14;24.65;;;16.55;;
50393;SDS011;36308;46.312;25.288;2023-04-08T01:35:41;26.20;;;17.63;;
50393;SDS011;36308;46.312;25.288;2023-04-08T01:38:08;27.17;;;18.10;;
50393;SDS011;36308;46.312;25.288;2023-04-08T01:40:35;26.85;;;18.58;;
50393;SDS011;36308;46.312;25.288;2023-04-08T01:43:03;27.40;;;17.38;;
50393;SDS011;36308;46.312;25.288;2023-04-08T01:45:32;23.65;;;16.50;;
50393;SDS011;36308;46.312;25.288;2023-04-08T01:47:57;26.42;;;17.38;;
50393;SDS011;36308;46.312;25.288;2023-04-08T01:50:25;24.38;;;16.00;;
50393;SDS011;36308;46.312;25.288;2023-04-08T01:52:52;22.10;;;15.50;;
50393;SDS011;36308;46.312;25.288;2023-04-08T01:55:19;23.23;;;15.48;;
50393;SDS011;36308;46.312;25.288;2023-04-08T01:57:50;24.45;;;15.55;;
50393;SDS011;36308;46.312;25.288;2023-04-08T02:00:18;26.52;;;16.48;;
50393;SDS011;36308;46.312;25.288;2023-04-08T02:02:47;26.60;;;16.38;;
50393;SDS011;36308;46.312;25.288;2023-04-08T02:05:13;25.13;;;16.25;;
50393;SDS011;36308;46.312;25.288;2023-04-08T02:07:39;24.85;;;16.25;;
50393;SDS011;36308;46.312;25.288;2023-04-08T02:10:05;26.30;;;16.05;;
50393;SDS011;36308;46.312;25.288;2023-04-08T02:12:32;26.08;;;17.13;;
50393;SDS011;36308;46.312;25.288;2023-04-08T02:14:58;22.85;;;15.15;;
50393;SDS011;36308;46.312;25.288;2023-04-08T02:17:24;26.10;;;16.25;;
50393;SDS011;36308;46.312;25.288;2023-04-08T02:25:07;25.75;;;16.92;;
50393;SDS011;36308;46.312;25.288;2023-04-08T02:27:37;24.75;;;16.63;;
50393;SDS011;36308;46.312;25.288;2023-04-08T02:30:04;24.20;;;16.30;;
50393;SDS011;36308;46.312;25.288;2023-04-08T02:32:32;26.15;;;16.20;;
50393;SDS011;36308;46.312;25.288;2023-04-08T02:35:03;23.65;;;15.60;;
50393;SDS011;36308;46.312;25.288;2023-04-08T02:37:30;29.05;;;18.38;;
50393;SDS011;36308;46.312;25.288;2023-04-08T02:39:56;37.53;;;24.25;;
50393;SDS011;36308;46.312;25.288;2023-04-08T02:42:22;29.80;;;20.83;;
50393;SDS011;36308;46.312;25.288;2023-04-08T02:44:47;26.88;;;18.50;;
50393;SDS011;36308;46.312;25.288;2023-04-08T02:47:13;31.23;;;20.27;;
50393;SDS011;36308;46.312;25.288;2023-04-08T02:49:38;28.10;;;18.60;;
50393;SDS011;36308;46.312;25.288;2023-04-08T02:52:04;24.10;;;15.50;;
50393;SDS011;36308;46.312;25.288;2023-04-08T02:54:29;25.30;;;16.60;;
50393;SDS011;36308;46.312;25.288;2023-04-08T02:56:55;23.13;;;14.93;;
50393;SDS011;36308;46.312;25.288;2023-04-08T02:59:20;20.33;;;14.35;;
50393;SDS011;36308;46.312;25.288;2023-04-08T03:01:46;20.40;;;13.68;;
50393;SDS011;36308;46.312;25.288;2023-04-08T03:04:11;21.20;;;14.05;;
50393;SDS011;36308;46.312;25.288;2023-04-08T03:06:37;23.27;;;14.75;;
50393;SDS011;36308;46.312;25.288;2023-04-08T03:09:02;23.75;;;15.75;;
50393;SDS011;36308;46.312;25.288;2023-04-08T03:11:29;22.10;;;15.45;;
50393;SDS011;36308;46.312;25.288;2023-04-08T03:13:55;24.65;;;15.68;;
50393;SDS011;36308;46.312;25.288;2023-04-08T03:16:21;21.88;;;13.82;;
50393;SDS011;36308;46.312;25.288;2023-04-08T03:18:48;20.45;;;13.73;;
50393;SDS011;36308;46.312;25.288;2023-04-08T03:21:14;19.80;;;14.00;;
50393;SDS011;36308;46.312;25.288;2023-04-08T03:23:40;21.30;;;14.93;;
50393;SDS011;36308;46.312;25.288;2023-04-08T03:26:05;19.00;;;13.57;;
50393;SDS011;36308;46.312;25.288;2023-04-08T03:28:31;22.25;;;14.48;;
50393;SDS011;36308;46.312;25.288;2023-04-08T03:30:56;20.70;;;13.57;;
50393;SDS011;36308;46.312;25.288;2023-04-08T03:33:22;22.95;;;14.73;;
50393;SDS011;36308;46.312;25.288;2023-04-08T03:35:47;23.35;;;14.35;;
50393;SDS011;36308;46.312;25.288;2023-04-08T03:38:12;21.92;;;14.32;;
50393;SDS011;36308;46.312;25.288;2023-04-08T03:40:38;22.35;;;14.15;;
50393;SDS011;36308;46.312;25.288;2023-04-08T03:43:03;21.60;;;14.10;;
50393;SDS011;36308;46.312;25.288;2023-04-08T03:45:30;22.15;;;15.00;;
50393;SDS011;36308;46.312;25.288;2023-04-08T03:47:56;25.30;;;15.52;;
50393;SDS011;36308;46.312;25.288;2023-04-08T03:50:21;20.75;;;13.48;;
50393;SDS011;36308;46.312;25.288;2023-04-08T03:52:47;25.00;;;16.05;;
50393;SDS011;36308;46.312;25.288;2023-04-08T03:55:12;36.92;;;21.90;;
50393;SDS011;36308;46.312;25.288;2023-04-08T03:57:38;33.88;;;20.67;;
50393;SDS011;36308;46.312;25.288;2023-04-08T04:00:03;34.25;;;19.98;;
50393;SDS011;36308;46.312;25.288;2023-04-08T04:02:29;32.58;;;19.85;;
50393;SDS011;36308;46.312;25.288;2023-04-08T04:04:55;30.27;;;19.38;;
50393;SDS011;36308;46.312;25.288;2023-04-08T04:07:20;27.60;;;17.55;;
50393;SDS011;36308;46.312;25.288;2023-04-08T04:09:46;26.25;;;17.75;;
50393;SDS011;36308;46.312;25.288;2023-04-08T04:12:11;26.98;;;18.27;;
50393;SDS011;36308;46.312;25.288;2023-04-08T04:14:37;28.10;;;18.45;;
50393;SDS011;36308;46.312;25.288;2023-04-08T04:17:02;27.92;;;18.05;;
50393;SDS011;36308;46.312;25.288;2023-04-08T04:19:31;31.65;;;20.30;;
50393;SDS011;36308;46.312;25.288;2023-04-08T04:21:56;31.88;;;20.35;;
50393;SDS011;36308;46.312;25.288;2023-04-08T04:24:22;39.20;;;26.02;;
50393;SDS011;36308;46.312;25.288;2023-04-08T04:26:47;38.08;;;26.08;;
50393;SDS011;36308;46.312;25.288;2023-04-08T04:29:13;51.38;;;32.25;;
50393;SDS011;36308;46.312;25.288;2023-04-08T04:31:38;45.28;;;30.40;;
50393;SDS011;36308;46.312;25.288;2023-04-08T04:34:03;37.47;;;24.83;;
50393;SDS011;36308;46.312;25.288;2023-04-08T04:36:29;39.53;;;25.92;;
50393;SDS011;36308;46.312;25.288;2023-04-08T04:38:56;35.72;;;23.83;;
50393;SDS011;36308;46.312;25.288;2023-04-08T04:41:21;51.08;;;31.95;;
50393;SDS011;36308;46.312;25.288;2023-04-08T04:43:47;53.13;;;30.73;;
50393;SDS011;36308;46.312;25.288;2023-04-08T04:46:12;42.58;;;27.58;;
50393;SDS011;36308;46.312;25.288;2023-04-08T04:48:38;43.83;;;27.60;;
50393;SDS011;36308;46.312;25.288;2023-04-08T04:51:04;42.50;;;28.42;;
50393;SDS011;36308;46.312;25.288;2023-04-08T04:53:31;42.13;;;27.30;;
50393;SDS011;36308;46.312;25.288;2023-04-08T04:55:57;39.92;;;26.00;;
50393;SDS011;36308;46.312;25.288;2023-04-08T04:58:22;96.20;;;57.70;;
50393;SDS011;36308;46.312;25.288;2023-04-08T05:00:48;62.97;;;37.08;;
50393;SDS011;36308;46.312;25.288;2023-04-08T05:03:13;47.33;;;29.50;;
50393;SDS011;36308;46.312;25.288;2023-04-08T05:05:39;58.97;;;36.25;;
50393;SDS011;36308;46.312;25.288;2023-04-08T05:08:04;43.03;;;29.40;;
50393;SDS011;36308;46.312;25.288;2023-04-08T05:10:31;49.95;;;32.33;;
50393;SDS011;36308;46.312;25.288;2023-04-08T05:12:57;273.35;;;97.28;;
50393;SDS011;36308;46.312;25.288;2023-04-08T05:15:22;180.95;;;75.07;;
50393;SDS011;36308;46.312;25.288;2023-04-08T05:17:48;56.15;;;33.55;;
50393;SDS011;36308;46.312;25.288;2023-04-08T05:20:13;40.92;;;26.58;;
50393;SDS011;36308;46.312;25.288;2023-04-08T05:22:39;45.75;;;30.58;;
50393;SDS011;36308;46.312;25.288;2023-04-08T05:25:04;47.25;;;30.88;;
50393;SDS011;36308;46.312;25.288;2023-04-08T05:27:30;48.65;;;32.97;;
50393;SDS011;36308;46.312;25.288;2023-04-08T05:29:56;61.58;;;42.35;;
50393;SDS011;36308;46.312;25.288;2023-04-08T05:32:21;56.92;;;38.45;;
50393;SDS011;36308;46.312;25.288;2023-04-08T05:34:47;54.17;;;37.30;;
50393;SDS011;36308;46.312;25.288;2023-04-08T05:37:12;54.85;;;35.28;;
50393;SDS011;36308;46.312;25.288;2023-04-08T05:39:38;52.42;;;33.03;;
50393;SDS011;36308;46.312;25.288;2023-04-08T05:42:03;50.08;;;32.65;;
50393;SDS011;36308;46.312;25.288;2023-04-08T05:44:29;51.80;;;34.75;;
50393;SDS011;36308;46.312;25.288;2023-04-08T05:46:55;51.97;;;32.92;;
50393;SDS011;36308;46.312;25.288;2023-04-08T05:49:21;42.15;;;28.73;;
50393;SDS011;36308;46.312;25.288;2023-04-08T05:51:48;45.83;;;30.67;;
50393;SDS011;36308;46.312;25.288;2023-04-08T05:54:13;47.13;;;29.98;;
50393;SDS011;36308;46.312;25.288;2023-04-08T05:56:39;43.85;;;28.70;;
50393;SDS011;36308;46.312;25.288;2023-04-08T05:59:04;49.83;;;32.13;;
50393;SDS011;36308;46.312;25.288;2023-04-08T06:01:30;50.95;;;32.97;;
50393;SDS011;36308;46.312;25.288;2023-04-08T06:03:55;48.53;;;32.25;;
50393;SDS011;36308;46.312;25.288;2023-04-08T06:06:21;42.22;;;29.15;;
50393;SDS011;36308;46.312;25.288;2023-04-08T06:08:47;43.05;;;30.33;;
50393;SDS011;36308;46.312;25.288;2023-04-08T06:11:12;43.47;;;28.45;;
50393;SDS011;36308;46.312;25.288;2023-04-08T06:13:38;53.25;;;33.42;;
50393;SDS011;36308;46.312;25.288;2023-04-08T06:16:10;44.70;;;29.10;;
50393;SDS011;36308;46.312;25.288;2023-04-08T06:18:36;57.05;;;35.30;;
50393;SDS011;36308;46.312;25.288;2023-04-08T06:21:02;51.33;;;31.38;;
50393;SDS011;36308;46.312;25.288;2023-04-08T06:23:27;50.03;;;31.10;;
50393;SDS011;36308;46.312;25.288;2023-04-08T06:25:53;42.47;;;28.05;;
50393;SDS011;36308;46.312;25.288;2023-04-08T06:28:18;45.03;;;27.92;;
50393;SDS011;36308;46.312;25.288;2023-04-08T06:30:44;42.95;;;28.50;;
50393;SDS011;36308;46.312;25.288;2023-04-08T06:33:09;41.85;;;28.85;;
50393;SDS011;36308;46.312;25.288;2023-04-08T06:35:35;54.22;;;38.10;;
50393;SDS011;36308;46.312;25.288;2023-04-08T06:38:03;49.10;;;33.25;;
50393;SDS011;36308;46.312;25.288;2023-04-08T06:40:28;45.55;;;32.88;;
50393;SDS011;36308;46.312;25.288;2023-04-08T06:42:54;50.10;;;33.78;;
50393;SDS011;36308;46.312;25.288;2023-04-08T06:45:20;47.50;;;33.08;;
50393;SDS011;36308;46.312;25.288;2023-04-08T06:47:45;49.20;;;33.90;;
50393;SDS011;36308;46.312;25.288;2023-04-08T06:50:11;48.95;;;31.15;;
50393;SDS011;36308;46.312;25.288;2023-04-08T06:52:36;49.72;;;33.40;;
50393;SDS011;36308;46.312;25.288;2023-04-08T06:55:02;50.05;;;33.83;;
50393;SDS011;36308;46.312;25.288;2023-04-08T07:00:12;49.60;;;30.10;;
50393;SDS011;36308;46.312;25.288;2023-04-08T07:02:37;38.22;;;22.58;;
50393;SDS011;36308;46.312;25.288;2023-04-08T07:05:03;27.95;;;17.25;;
50393;SDS011;36308;46.312;25.288;2023-04-08T07:07:29;33.90;;;22.17;;
50393;SDS011;36308;46.312;25.288;2023-04-08T07:09:54;38.15;;;25.02;;
50393;SDS011;36308;46.312;25.288;2023-04-08T07:12:20;27.17;;;17.45;;
50393;SDS011;36308;46.312;25.288;2023-04-08T07:14:45;18.60;;;12.52;;
50393;SDS011;36308;46.312;25.288;2023-04-08T07:17:11;17.65;;;12.48;;
50393;SDS011;36308;46.312;25.288;2023-04-08T07:19:36;21.58;;;13.38;;
50393;SDS011;36308;46.312;25.288;2023-04-08T07:22:02;35.67;;;22.02;;
50393;SDS011;36308;46.312;25.288;2023-04-08T07:24:27;23.45;;;15.70;;
50393;SDS011;36308;46.312;25.288;2023-04-08T07:26:53;24.48;;;15.57;;
50393;SDS011;36308;46.312;25.288;2023-04-08T07:29:20;33.03;;;22.55;;
50393;SDS011;36308;46.312;25.288;2023-04-08T07:31:46;35.28;;;21.85;;
50393;SDS011;36308;46.312;25.288;2023-04-08T07:34:11;24.25;;;16.40;;
50393;SDS011;36308;46.312;25.288;2023-04-08T07:36:37;26.17;;;18.10;;
50393;SDS011;36308;46.312;25.288;2023-04-08T07:39:03;19.67;;;14.18;;
50393;SDS011;36308;46.312;25.288;2023-04-08T07:41:28;37.63;;;21.02;;
50393;SDS011;36308;46.312;25.288;2023-04-08T07:43:54;28.80;;;18.98;;
50393;SDS011;36308;46.312;25.288;2023-04-08T07:46:20;22.77;;;16.20;;
50393;SDS011;36308;46.312;25.288;2023-04-08T07:48:45;26.98;;;17.98;;
50393;SDS011;36308;46.312;25.288;2023-04-08T07:51:11;23.40;;;16.05;;
50393;SDS011;36308;46.312;25.288;2023-04-08T07:53:37;27.55;;;16.52;;
50393;SDS011;36308;46.312;25.288;2023-04-08T07:56:13;24.27;;;16.70;;
50393;SDS011;36308;46.312;25.288;2023-04-08T07:58:40;24.75;;;16.98;;
50393;SDS011;36308;46.312;25.288;2023-04-08T08:03:42;13.00;;;8.93;;
50393;SDS011;36308;46.312;25.288;2023-04-08T08:06:10;15.63;;;10.50;;
50393;SDS011;36308;46.312;25.288;2023-04-08T08:08:35;20.35;;;12.57;;
50393;SDS011;36308;46.312;25.288;2023-04-08T08:11:01;15.05;;;9.82;;
50393;SDS011;36308;46.312;25.288;2023-04-08T08:13:26;16.42;;;10.60;;
50393;SDS011;36308;46.312;25.288;2023-04-08T08:15:52;19.05;;;11.65;;
50393;SDS011;36308;46.312;25.288;2023-04-08T08:18:18;15.88;;;11.15;;
50393;SDS011;36308;46.312;25.288;2023-04-08T08:20:43;21.33;;;13.45;;
50393;SDS011;36308;46.312;25.288;2023-04-08T08:23:09;26.02;;;15.20;;
50393;SDS011;36308;46.312;25.288;2023-04-08T08:25:34;29.75;;;21.77;;
50393;SDS011;36308;46.312;25.288;2023-04-08T08:28:01;26.27;;;17.45;;
50393;SDS011;36308;46.312;25.288;2023-04-08T08:30:27;19.92;;;12.50;;
50393;SDS011;36308;46.312;25.288;2023-04-08T08:32:52;17.65;;;12.32;;
50393;SDS011;36308;46.312;25.288;2023-04-08T08:35:18;16.48;;;11.52;;
50393;SDS011;36308;46.312;25.288;2023-04-08T08:37:43;16.90;;;11.15;;
50393;SDS011;36308;46.312;25.288;2023-04-08T08:40:09;15.15;;;10.15;;
50393;SDS011;36308;46.312;25.288;2023-04-08T08:42:35;14.55;;;10.18;;
50393;SDS011;36308;46.312;25.288;2023-04-08T08:45:01;14.50;;;8.73;;
50393;SDS011;36308;46.312;25.288;2023-04-08T08:47:27;15.77;;;10.60;;
50393;SDS011;36308;46.312;25.288;2023-04-08T08:49:53;16.98;;;11.93;;
50393;SDS011;36308;46.312;25.288;2023-04-08T08:52:18;15.85;;;10.52;;
50393;SDS011;36308;46.312;25.288;2023-04-08T08:54:44;21.27;;;15.98;;
50393;SDS011;36308;46.312;25.288;2023-04-08T08:57:18;18.65;;;11.52;;
50393;SDS011;36308;46.312;25.288;2023-04-08T08:59:45;16.83;;;10.37;;
50393;SDS011;36308;46.312;25.288;2023-04-08T09:05:00;13.68;;;9.27;;
50393;SDS011;36308;46.312;25.288;2023-04-08T09:07:27;15.68;;;10.02;;
50393;SDS011;36308;46.312;25.288;2023-04-08T09:09:55;16.83;;;10.93;;
50393;SDS011;36308;46.312;25.288;2023-04-08T09:12:22;14.25;;;8.63;;
50393;SDS011;36308;46.312;25.288;2023-04-08T09:14:49;14.73;;;8.70;;
50393;SDS011;36308;46.312;25.288;2023-04-08T09:17:15;11.98;;;8.27;;
50393;SDS011;36308;46.312;25.288;2023-04-08T09:20:11;10.15;;;7.50;;
50393;SDS011;36308;46.312;25.288;2023-04-08T09:25:27;9.55;;;7.15;;
50393;SDS011;36308;46.312;25.288;2023-04-08T09:27:57;13.05;;;9.23;;
50393;SDS011;36308;46.312;25.288;2023-04-08T09:30:23;15.23;;;10.30;;
50393;SDS011;36308;46.312;25.288;2023-04-08T09:32:51;25.48;;;13.15;;
50393;SDS011;36308;46.312;25.288;2023-04-08T09:35:21;8.70;;;6.32;;
50393;SDS011;36308;46.312;25.288;2023-04-08T09:37:47;12.25;;;8.50;;
50393;SDS011;36308;46.312;25.288;2023-04-08T09:40:14;10.98;;;7.93;;
50393;SDS011;36308;46.312;25.288;2023-04-08T09:42:41;15.18;;;10.07;;
50393;SDS011;36308;46.312;25.288;2023-04-08T09:45:09;9.02;;;6.55;;
50393;SDS011;36308;46.312;25.288;2023-04-08T09:47:40;7.88;;;5.80;;
50393;SDS011;36308;46.312;25.288;2023-04-08T09:50:14;23.92;;;14.82;;
50393;SDS011;36308;46.312;25.288;2023-04-08T09:52:46;13.82;;;8.98;;
50393;SDS011;36308;46.312;25.288;2023-04-08T09:55:20;10.10;;;6.90;;
50393;SDS011;36308;46.312;25.288;2023-04-08T10:00:51;11.05;;;7.95;;
50393;SDS011;36308;46.312;25.288;2023-04-08T10:03:22;8.82;;;6.63;;
50393;SDS011;36308;46.312;25.288;2023-04-08T10:05:49;10.65;;;7.18;;
50393;SDS011;36308;46.312;25.288;2023-04-08T10:08:17;12.75;;;9.43;;
50393;SDS011;36308;46.312;25.288;2023-04-08T10:10:43;13.10;;;9.60;;
50393;SDS011;36308;46.312;25.288;2023-04-08T10:13:10;13.50;;;9.43;;
50393;SDS011;36308;46.312;25.288;2023-04-08T10:15:36;17.70;;;10.55;;
50393;SDS011;36308;46.312;25.288;2023-04-08T10:25:42;8.32;;;5.88;;
50393;SDS011;36308;46.312;25.288;2023-04-08T10:33:15;11.38;;;7.43;;
50393;SDS011;36308;46.312;25.288;2023-04-08T10:35:48;20.25;;;12.50;;
50393;SDS011;36308;46.312;25.288;2023-04-08T10:38:17;11.18;;;7.57;;
50393;SDS011;36308;46.312;25.288;2023-04-08T10:40:43;8.68;;;6.13;;
50393;SDS011;36308;46.312;25.288;2023-04-08T10:43:10;13.13;;;7.40;;
50393;SDS011;36308;46.312;25.288;2023-04-08T10:45:37;14.48;;;9.75;;
50393;SDS011;36308;46.312;25.288;2023-04-08T10:48:19;13.73;;;7.55;;
50393;SDS011;36308;46.312;25.288;2023-04-08T10:55:51;31.40;;;14.93;;
50393;SDS011;36308;46.312;25.288;2023-04-08T10:58:16;14.55;;;8.07;;
50393;SDS011;36308;46.312;25.288;2023-04-08T11:00:42;18.92;;;12.10;;
50393;SDS011;36308;46.312;25.288;2023-04-08T11:03:08;11.73;;;8.05;;
50393;SDS011;36308;46.312;25.288;2023-04-08T11:05:35;7.68;;;5.63;;
50393;SDS011;36308;46.312;25.288;2023-04-08T11:08:02;11.73;;;7.13;;
50393;SDS011;36308;46.312;25.288;2023-04-08T11:10:28;10.82;;;7.32;;
50393;SDS011;36308;46.312;25.288;2023-04-08T11:12:55;10.00;;;6.88;;
50393;SDS011;36308;46.312;25.288;2023-04-08T11:15:21;10.93;;;8.18;;
50393;SDS011;36308;46.312;25.288;2023-04-08T11:17:49;7.15;;;5.07;;
50393;SDS011;36308;46.312;25.288;2023-04-08T11:20:15;9.27;;;6.40;;
50393;SDS011;36308;46.312;25.288;2023-04-08T11:22:42;9.07;;;6.25;;
50393;SDS011;36308;46.312;25.288;2023-04-08T11:25:09;8.90;;;5.63;;
50393;SDS011;36308;46.312;25.288;2023-04-08T11:27:36;8.48;;;5.40;;
50393;SDS011;36308;46.312;25.288;2023-04-08T11:30:02;10.05;;;6.70;;
50393;SDS011;36308;46.312;25.288;2023-04-08T11:32:29;14.93;;;10.98;;
50393;SDS011;36308;46.312;25.288;2023-04-08T11:34:55;10.68;;;7.00;;
50393;SDS011;36308;46.312;25.288;2023-04-08T11:37:25;8.15;;;5.72;;
50393;SDS011;36308;46.312;25.288;2023-04-08T11:39:53;7.35;;;5.38;;
50393;SDS011;36308;46.312;25.288;2023-04-08T11:42:27;15.43;;;9.52;;
50393;SDS011;36308;46.312;25.288;2023-04-08T11:44:54;17.35;;;7.78;;
50393;SDS011;36308;46.312;25.288;2023-04-08T11:47:20;8.93;;;6.60;;
50393;SDS011;36308;46.312;25.288;2023-04-08T11:49:46;9.00;;;6.38;;
50393;SDS011;36308;46.312;25.288;2023-04-08T11:52:12;16.70;;;10.55;;
50393;SDS011;36308;46.312;25.288;2023-04-08T11:54:41;27.52;;;17.50;;
50393;SDS011;36308;46.312;25.288;2023-04-08T11:57:07;19.40;;;12.88;;
50393;SDS011;36308;46.312;25.288;2023-04-08T11:59:36;8.77;;;6.50;;
50393;SDS011;36308;46.312;25.288;2023-04-08T12:02:02;11.60;;;8.07;;
50393;SDS011;36308;46.312;25.288;2023-04-08T12:04:28;8.57;;;6.05;;
50393;SDS011;36308;46.312;25.288;2023-04-08T12:06:55;18.75;;;14.95;;
50393;SDS011;36308;46.312;25.288;2023-04-08T12:09:20;20.73;;;14.18;;
50393;SDS011;36308;46.312;25.288;2023-04-08T12:11:46;20.13;;;13.75;;
50393;SDS011;36308;46.312;25.288;2023-04-08T12:14:12;20.50;;;11.15;;
50393;SDS011;36308;46.312;25.288;2023-04-08T12:16:38;17.23;;;10.65;;
50393;SDS011;36308;46.312;25.288;2023-04-08T12:19:03;13.85;;;10.25;;
50393;SDS011;36308;46.312;25.288;2023-04-08T12:21:29;12.10;;;8.32;;
50393;SDS011;36308;46.312;25.288;2023-04-08T12:23:56;9.88;;;6.78;;
50393;SDS011;36308;46.312;25.288;2023-04-08T12:26:21;10.10;;;7.45;;
50393;SDS011;36308;46.312;25.288;2023-04-08T12:28:47;19.30;;;11.60;;
50393;SDS011;36308;46.312;25.288;2023-04-08T12:31:12;12.70;;;8.93;;
50393;SDS011;36308;46.312;25.288;2023-04-08T12:33:38;10.90;;;8.25;;
50393;SDS011;36308;46.312;25.288;2023-04-08T12:36:03;23.08;;;14.57;;
50393;SDS011;36308;46.312;25.288;2023-04-08T12:38:29;15.43;;;9.65;;
50393;SDS011;36308;46.312;25.288;2023-04-08T12:40:55;10.05;;;7.43;;
50393;SDS011;36308;46.312;25.288;2023-04-08T12:43:20;10.35;;;7.35;;
50393;SDS011;36308;46.312;25.288;2023-04-08T12:45:47;15.35;;;8.90;;
50393;SDS011;36308;46.312;25.288;2023-04-08T12:48:13;11.00;;;7.88;;
50393;SDS011;36308;46.312;25.288;2023-04-08T12:50:39;13.45;;;7.95;;
50393;SDS011;36308;46.312;25.288;2023-04-08T12:53:05;23.48;;;14.98;;
50393;SDS011;36308;46.312;25.288;2023-04-08T12:55:31;38.55;;;21.15;;
50393;SDS011;36308;46.312;25.288;2023-04-08T12:57:56;15.73;;;10.32;;
50393;SDS011;36308;46.312;25.288;2023-04-08T13:00:22;84.18;;;58.08;;
50393;SDS011;36308;46.312;25.288;2023-04-08T13:02:48;15.65;;;13.05;;
50393;SDS011;36308;46.312;25.288;2023-04-08T13:05:13;11.60;;;8.73;;
50393;SDS011;36308;46.312;25.288;2023-04-08T13:07:39;10.18;;;7.47;;
50393;SDS011;36308;46.312;25.288;2023-04-08T13:10:05;8.80;;;6.57;;
50393;SDS011;36308;46.312;25.288;2023-04-08T13:12:32;10.30;;;7.25;;
50393;SDS011;36308;46.312;25.288;2023-04-08T13:14:58;9.95;;;7.07;;
50393;SDS011;36308;46.312;25.288;2023-04-08T13:17:24;13.35;;;8.45;;
50393;SDS011;36308;46.312;25.288;2023-04-08T13:19:49;18.13;;;13.57;;
50393;SDS011;36308;46.312;25.288;2023-04-08T13:22:15;11.23;;;8.63;;
50393;SDS011;36308;46.312;25.288;2023-04-08T13:24:41;58.38;;;11.90;;
50393;SDS011;36308;46.312;25.288;2023-04-08T13:27:07;12.27;;;7.45;;
50393;SDS011;36308;46.312;25.288;2023-04-08T13:29:33;11.63;;;7.05;;
50393;SDS011;36308;46.312;25.288;2023-04-08T13:31:58;9.25;;;7.00;;
50393;SDS011;36308;46.312;25.288;2023-04-08T13:34:25;11.82;;;8.63;;
50393;SDS011;36308;46.312;25.288;2023-04-08T13:36:51;12.55;;;8.98;;
50393;SDS011;36308;46.312;25.288;2023-04-08T13:39:16;13.13;;;8.15;;
50393;SDS011;36308;46.312;25.288;2023-04-08T13:41:42;9.35;;;7.07;;
50393;SDS011;36308;46.312;25.288;2023-04-08T13:44:07;10.05;;;7.63;;
50393;SDS011;36308;46.312;25.288;2023-04-08T13:46:33;13.43;;;10.10;;
50393;SDS011;36308;46.312;25.288;2023-04-08T13:48:58;16.20;;;8.65;;
50393;SDS011;36308;46.312;25.288;2023-04-08T13:51:24;11.20;;;7.03;;
50393;SDS011;36308;46.312;25.288;2023-04-08T13:53:51;10.18;;;6.75;;
50393;SDS011;36308;46.312;25.288;2023-04-08T13:56:16;12.60;;;7.75;;
50393;SDS011;36308;46.312;25.288;2023-04-08T13:58:42;14.45;;;9.75;;
50393;SDS011;36308;46.312;25.288;2023-04-08T14:01:08;15.02;;;9.15;;
50393;SDS011;36308;46.312;25.288;2023-04-08T14:03:33;15.38;;;10.45;;
50393;SDS011;36308;46.312;25.288;2023-04-08T14:05:58;9.77;;;6.80;;
50393;SDS011;36308;46.312;25.288;2023-04-08T14:08:25;9.20;;;6.80;;
50393;SDS011;36308;46.312;25.288;2023-04-08T14:10:50;11.13;;;6.53;;
50393;SDS011;36308;46.312;25.288;2023-04-08T14:13:16;7.75;;;6.00;;
50393;SDS011;36308;46.312;25.288;2023-04-08T14:15:42;11.05;;;8.13;;
50393;SDS011;36308;46.312;25.288;2023-04-08T14:18:07;10.45;;;8.10;;
50393;SDS011;36308;46.312;25.288;2023-04-08T14:20:33;23.92;;;10.57;;
50393;SDS011;36308;46.312;25.288;2023-04-08T14:22:59;19.23;;;9.75;;
50393;SDS011;36308;46.312;25.288;2023-04-08T14:25:25;18.55;;;9.23;;
50393;SDS011;36308;46.312;25.288;2023-04-08T14:27:51;17.38;;;11.27;;
50393;SDS011;36308;46.312;25.288;2023-04-08T14:30:16;25.70;;;14.45;;
50393;SDS011;36308;46.312;25.288;2023-04-08T14:32:42;26.42;;;17.42;;
50393;SDS011;36308;46.312;25.288;2023-04-08T14:35:07;24.77;;;15.90;;
50393;SDS011;36308;46.312;25.288;2023-04-08T14:37:33;17.90;;;12.68;;
50393;SDS011;36308;46.312;25.288;2023-04-08T14:39:59;10.90;;;8.23;;
50393;SDS011;36308;46.312;25.288;2023-04-08T14:42:24;10.80;;;8.50;;
50393;SDS011;36308;46.312;25.288;2023-04-08T14:44:50;15.77;;;9.85;;
50393;SDS011;36308;46.312;25.288;2023-04-08T14:47:15;23.02;;;15.43;;
50393;SDS011;36308;46.312;25.288;2023-04-08T14:49:41;19.27;;;12.00;;
50393;SDS011;36308;46.312;25.288;2023-04-08T14:52:07;18.50;;;12.35;;